createdAt,value
2022-10-17T00:01:52.951Z,13.60
2022-10-17T00:04:19.336Z,15.35
2022-10-17T00:06:45.714Z,12.80
2022-10-17T00:09:12.098Z,19.80
2022-10-17T00:11:39.398Z,15.27
2022-10-17T00:14:05.852Z,15.25
2022-10-17T00:16:37.011Z,15.25
2022-10-17T00:21:31.017Z,9.30
2022-10-17T00:23:57.434Z,8.52
2022-10-17T00:26:24.004Z,6.43
2022-10-17T00:28:52.415Z,9.32
2022-10-17T00:31:20.419Z,6.25
2022-10-17T00:33:47.777Z,5.25
2022-10-17T00:36:18.480Z,6.22
2022-10-17T00:38:47.084Z,6.95
2022-10-17T00:41:15.892Z,5.53
2022-10-17T00:44:01.353Z,5.55
2022-10-17T00:46:31.514Z,4.32
2022-10-17T00:49:02.723Z,6.18
2022-10-17T00:54:02.250Z,9.02
2022-10-17T00:56:29.727Z,8.80
2022-10-17T00:58:56.777Z,7.75
2022-10-17T01:01:23.390Z,8.13
2022-10-17T01:03:49.804Z,11.68
2022-10-17T01:06:17.767Z,9.93
2022-10-17T01:08:44.354Z,8.98
2022-10-17T01:11:30.764Z,11.15
2022-10-17T01:14:06.338Z,10.23
2022-10-17T01:16:54.335Z,8.23
2022-10-17T01:19:48.652Z,15.50
2022-10-17T01:22:26.515Z,12.68
2022-10-17T01:25:17.966Z,10.27
2022-10-17T01:30:34.245Z,8.10
2022-10-17T01:33:12.392Z,9.18
2022-10-17T01:35:52.226Z,10.60
2022-10-17T01:38:30.100Z,12.77
2022-10-17T01:41:06.023Z,13.02
2022-10-17T01:43:47.141Z,8.98
2022-10-17T01:46:20.608Z,6.10
2022-10-17T01:48:47.569Z,12.30
2022-10-17T01:51:22.557Z,7.38
2022-10-17T01:53:59.215Z,6.70
2022-10-17T01:56:29.958Z,16.00
2022-10-17T01:59:03.925Z,19.15
2022-10-17T02:01:32.530Z,9.57
2022-10-17T02:04:02.444Z,9.52
2022-10-17T02:06:28.987Z,10.23
2022-10-17T02:08:56.174Z,9.98
2022-10-17T02:11:27.309Z,13.95
2022-10-17T02:17:08.385Z,11.50
2022-10-17T02:19:50.921Z,18.42
2022-10-17T02:22:45.429Z,11.80
2022-10-17T02:25:28.600Z,13.15
2022-10-17T02:28:07.544Z,15.27
2022-10-17T02:30:43.221Z,13.23
2022-10-17T02:33:16.533Z,22.85
2022-10-17T02:35:51.980Z,14.52
2022-10-17T02:38:21.558Z,23.20
2022-10-17T02:40:51.402Z,16.77
2022-10-17T02:43:17.901Z,11.57
2022-10-17T02:45:45.609Z,8.35
2022-10-17T02:48:19.009Z,13.18
2022-10-17T02:51:01.986Z,10.75
2022-10-17T02:53:37.805Z,10.70
2022-10-17T02:56:14.257Z,7.57
2022-10-17T02:58:43.040Z,5.40
2022-10-17T03:01:10.181Z,5.70
2022-10-17T03:03:36.574Z,5.47
2022-10-17T03:06:03.061Z,8.98
2022-10-17T03:08:29.579Z,7.13
2022-10-17T03:10:56.462Z,6.85
2022-10-17T03:13:23.296Z,7.20
2022-10-17T03:15:50.066Z,5.10
2022-10-17T03:18:16.626Z,6.10
2022-10-17T03:20:43.944Z,5.43
2022-10-17T03:23:10.366Z,15.20
2022-10-17T03:25:36.849Z,6.55
2022-10-17T03:28:05.330Z,14.10
2022-10-17T03:30:32.369Z,7.07
2022-10-17T03:32:59.068Z,6.20
2022-10-17T03:35:26.929Z,5.45
2022-10-17T03:37:55.995Z,8.65
2022-10-17T03:40:23.982Z,9.70
2022-10-17T03:42:50.432Z,8.32
2022-10-17T03:45:16.847Z,9.27
2022-10-17T03:47:44.738Z,9.23
2022-10-17T03:50:11.453Z,5.50
2022-10-17T03:52:39.348Z,11.20
2022-10-17T03:55:06.000Z,11.98
2022-10-17T03:57:34.973Z,9.10
2022-10-17T04:00:05.253Z,8.00
2022-10-17T04:02:40.727Z,7.90
2022-10-17T04:05:09.414Z,7.50
2022-10-17T04:07:37.524Z,6.88
2022-10-17T04:10:05.146Z,10.88
2022-10-17T04:12:32.475Z,4.03
2022-10-17T04:14:59.305Z,5.13
2022-10-17T04:17:26.180Z,4.68
2022-10-17T04:19:52.709Z,4.72
2022-10-17T04:22:19.306Z,3.97
2022-10-17T04:24:46.336Z,3.42
2022-10-17T04:27:34.413Z,6.45
2022-10-17T04:30:01.188Z,9.38
2022-10-17T04:32:30.269Z,9.27
2022-10-17T04:35:01.748Z,7.00
2022-10-17T04:37:29.465Z,10.75
2022-10-17T04:39:56.853Z,17.48
2022-10-17T04:42:23.366Z,9.32
2022-10-17T04:44:52.502Z,4.85
2022-10-17T04:47:18.898Z,8.98
2022-10-17T04:49:46.066Z,7.45
2022-10-17T04:52:14.215Z,5.60
2022-10-17T04:54:43.476Z,3.60
2022-10-17T04:57:12.627Z,8.52
2022-10-17T04:59:40.444Z,6.32
2022-10-17T05:02:40.411Z,7.22
2022-10-17T05:05:07.185Z,8.52
2022-10-17T05:07:34.262Z,7.30
2022-10-17T05:10:09.589Z,8.35
2022-10-17T05:12:36.336Z,8.48
2022-10-17T05:15:04.887Z,6.82
2022-10-17T05:17:31.383Z,5.95
2022-10-17T05:19:57.802Z,6.47
2022-10-17T05:22:24.250Z,5.90
2022-10-17T05:24:50.684Z,6.97
2022-10-17T05:27:17.099Z,13.63
2022-10-17T05:29:43.505Z,6.35
2022-10-17T05:32:17.669Z,4.93
2022-10-17T05:34:44.493Z,9.43
2022-10-17T05:37:11.102Z,10.75
2022-10-17T05:39:38.766Z,8.20
2022-10-17T05:42:05.225Z,5.95
2022-10-17T05:44:33.337Z,18.42
2022-10-17T05:47:00.785Z,8.95
2022-10-17T05:49:45.178Z,8.25
2022-10-17T05:52:14.156Z,11.25
2022-10-17T05:54:53.722Z,6.47
2022-10-17T05:57:20.315Z,10.48
2022-10-17T05:59:47.336Z,10.55
2022-10-17T06:02:18.731Z,8.95
2022-10-17T06:04:46.445Z,14.75
2022-10-17T06:07:14.484Z,9.13
2022-10-17T06:09:43.055Z,12.75
2022-10-17T06:12:10.534Z,13.73
2022-10-17T06:14:36.981Z,15.20
2022-10-17T06:17:12.102Z,20.05
2022-10-17T06:19:41.471Z,28.98
2022-10-17T06:22:08.175Z,16.00
2022-10-17T06:24:35.569Z,16.85
2022-10-17T06:27:08.064Z,15.85
2022-10-17T06:29:39.355Z,23.65
2022-10-17T06:32:08.693Z,21.58
2022-10-17T06:34:38.210Z,17.00
2022-10-17T06:37:04.667Z,17.63
2022-10-17T06:39:35.045Z,10.48
2022-10-17T06:42:09.534Z,20.02
2022-10-17T06:44:44.328Z,18.75
2022-10-17T06:47:32.560Z,24.10
2022-10-17T06:50:05.180Z,36.38
2022-10-17T06:52:40.753Z,32.92
2022-10-17T06:55:25.924Z,30.02
2022-10-17T06:58:07.569Z,19.45
2022-10-17T07:00:51.990Z,17.88
2022-10-17T07:03:18.658Z,14.93
2022-10-17T07:05:52.118Z,15.35
2022-10-17T07:08:18.570Z,14.02
2022-10-17T07:10:45.098Z,12.02
2022-10-17T07:13:11.625Z,11.45
2022-10-17T07:15:39.145Z,11.45
2022-10-17T07:18:05.902Z,8.45
2022-10-17T07:20:32.408Z,12.80
2022-10-17T07:22:58.875Z,11.57
2022-10-17T07:25:25.630Z,14.18
2022-10-17T07:30:23.936Z,13.10
2022-10-17T07:32:54.695Z,14.45
2022-10-17T07:35:21.546Z,14.55
2022-10-17T07:37:48.071Z,14.55
2022-10-17T07:40:17.387Z,14.07
2022-10-17T07:42:43.957Z,26.13
2022-10-17T07:45:11.267Z,21.52
2022-10-17T07:47:38.007Z,20.30
2022-10-17T07:50:07.514Z,21.38
2022-10-17T07:52:34.084Z,19.33
2022-10-17T07:55:00.460Z,15.57
2022-10-17T07:57:26.849Z,18.02
2022-10-17T07:59:54.263Z,16.35
2022-10-17T08:02:24.223Z,18.92
2022-10-17T08:04:52.065Z,19.98
2022-10-17T08:07:23.208Z,17.20
2022-10-17T08:09:50.962Z,17.60
2022-10-17T08:12:18.065Z,15.90
2022-10-17T08:14:44.564Z,15.60
2022-10-17T08:17:11.293Z,20.90
2022-10-17T08:19:39.138Z,20.40
2022-10-17T08:22:06.502Z,21.15
2022-10-17T08:24:33.312Z,12.18
2022-10-17T08:27:00.621Z,14.70
2022-10-17T08:29:28.423Z,11.07
2022-10-17T08:32:00.972Z,10.85
2022-10-17T08:34:28.964Z,12.90
2022-10-17T08:36:55.553Z,10.50
2022-10-17T08:39:22.069Z,7.72
2022-10-17T08:42:23.678Z,9.65
2022-10-17T08:45:14.709Z,10.68
2022-10-17T08:47:46.444Z,11.13
2022-10-17T08:50:23.620Z,24.80
2022-10-17T08:53:03.015Z,10.07
2022-10-17T08:55:41.297Z,10.60
2022-10-17T08:58:19.270Z,6.45
2022-10-17T09:01:00.874Z,10.77
2022-10-17T09:03:38.665Z,7.90
2022-10-17T09:06:20.655Z,10.70
2022-10-17T09:09:11.688Z,5.75
2022-10-17T09:12:04.791Z,16.67
2022-10-17T09:14:33.877Z,10.40
2022-10-17T09:17:42.397Z,9.45
2022-10-17T09:20:16.069Z,6.72
2022-10-17T09:22:54.638Z,9.90
2022-10-17T09:25:21.666Z,9.10
2022-10-17T09:27:52.441Z,10.57
2022-10-17T09:30:45.123Z,11.80
2022-10-17T09:33:35.174Z,13.98
2022-10-17T09:36:16.030Z,10.95
2022-10-17T09:38:50.506Z,9.52
2022-10-17T09:41:43.461Z,13.13
2022-10-17T09:44:14.157Z,8.75
2022-10-17T09:46:42.542Z,5.38
2022-10-17T09:49:18.177Z,7.65
2022-10-17T09:51:44.594Z,8.38
2022-10-17T09:54:24.248Z,6.53
2022-10-17T09:57:00.482Z,9.43
2022-10-17T09:59:36.145Z,7.40
2022-10-17T10:02:17.254Z,9.60
2022-10-17T10:05:06.621Z,5.85
2022-10-17T10:07:37.847Z,7.43
2022-10-17T10:10:08.139Z,8.55
2022-10-17T10:12:37.639Z,6.18
2022-10-17T10:15:34.674Z,5.47
2022-10-17T10:18:01.369Z,5.20
2022-10-17T10:20:32.306Z,4.60
2022-10-17T10:23:13.825Z,7.35
2022-10-17T10:25:54.176Z,5.10
2022-10-17T10:28:28.194Z,14.27
2022-10-17T10:30:56.624Z,8.95
2022-10-17T10:33:27.412Z,7.30
2022-10-17T10:35:57.234Z,9.23
2022-10-17T10:38:24.316Z,7.00
2022-10-17T10:40:57.492Z,5.70
2022-10-17T10:43:36.029Z,3.95
2022-10-17T10:46:15.913Z,7.03
2022-10-17T10:48:51.459Z,9.63
2022-10-17T10:51:23.787Z,6.22
2022-10-17T10:54:13.862Z,7.18
2022-10-17T10:56:54.650Z,5.78
2022-10-17T10:59:30.405Z,4.55
2022-10-17T11:01:59.798Z,6.65
2022-10-17T11:04:44.828Z,7.80
2022-10-17T11:07:14.584Z,6.55
2022-10-17T11:09:53.218Z,9.45
2022-10-17T11:12:25.638Z,8.05
2022-10-17T11:15:03.181Z,6.60
2022-10-17T11:17:41.752Z,7.43
2022-10-17T11:20:17.896Z,10.25
2022-10-17T11:22:57.645Z,5.78
2022-10-17T11:25:33.010Z,7.10
2022-10-17T11:28:04.618Z,5.03
2022-10-17T11:30:49.975Z,6.05
2022-10-17T11:33:31.935Z,10.38
2022-10-17T11:36:04.566Z,5.45
2022-10-17T11:38:43.315Z,6.80
2022-10-17T11:41:15.637Z,6.32
2022-10-17T11:43:56.485Z,8.32
2022-10-17T11:46:25.778Z,10.70
2022-10-17T11:49:20.643Z,7.05
2022-10-17T11:52:03.256Z,6.30
2022-10-17T11:54:45.366Z,7.68
2022-10-17T11:57:48.623Z,5.88
2022-10-17T12:00:41.714Z,4.88
2022-10-17T12:03:21.147Z,5.57
2022-10-17T12:05:59.755Z,6.03
2022-10-17T12:08:44.802Z,5.57
2022-10-17T12:11:24.681Z,7.55
2022-10-17T12:13:54.492Z,11.32
2022-10-17T12:16:20.848Z,8.48
2022-10-17T12:18:50.383Z,8.15
2022-10-17T12:21:16.948Z,8.15
2022-10-17T12:23:52.999Z,11.77
2022-10-17T12:26:29.942Z,4.78
2022-10-17T12:28:57.305Z,6.30
2022-10-17T12:31:32.498Z,6.85
2022-10-17T12:34:02.976Z,7.40
2022-10-17T12:36:29.358Z,7.15
2022-10-17T12:39:01.814Z,4.75
2022-10-17T12:41:40.502Z,7.28
2022-10-17T12:44:12.639Z,4.57
2022-10-17T12:46:52.399Z,5.13
2022-10-17T12:49:37.066Z,4.95
2022-10-17T12:52:18.678Z,6.50
2022-10-17T12:55:00.155Z,8.38
2022-10-17T12:57:59.889Z,7.78
2022-10-17T13:00:35.583Z,6.13
2022-10-17T13:03:23.992Z,7.28
2022-10-17T13:06:03.129Z,9.90
2022-10-17T13:08:33.701Z,8.65
2022-10-17T13:11:01.507Z,4.55
2022-10-17T13:13:48.692Z,5.32
2022-10-17T13:16:39.961Z,7.85
2022-10-17T13:19:18.181Z,6.03
2022-10-17T13:22:06.389Z,6.82
2022-10-17T13:24:39.076Z,6.45
2022-10-17T13:27:27.162Z,7.68
2022-10-17T13:29:56.223Z,6.22
2022-10-17T13:32:24.297Z,7.80
2022-10-17T13:35:13.850Z,7.28
2022-10-17T13:37:42.337Z,4.28
2022-10-17T13:40:40.357Z,7.65
2022-10-17T13:43:05.905Z,5.72
2022-10-17T13:45:34.749Z,9.38
2022-10-17T13:48:05.751Z,8.75
2022-10-17T13:53:33.259Z,5.75
2022-10-17T13:56:27.322Z,5.80
2022-10-17T13:58:57.422Z,4.85
2022-10-17T14:01:27.989Z,5.05
2022-10-17T14:04:07.953Z,7.85
2022-10-17T14:06:45.171Z,7.10
2022-10-17T14:09:26.257Z,9.82
2022-10-17T14:12:10.531Z,7.88
2022-10-17T14:15:05.245Z,4.30
2022-10-17T14:17:28.063Z,7.43
2022-10-17T14:20:34.537Z,4.05
2022-10-17T14:23:17.395Z,5.88
2022-10-17T14:25:40.558Z,6.72
2022-10-17T14:28:14.424Z,8.65
2022-10-17T14:30:56.149Z,6.60
2022-10-17T14:33:26.536Z,6.97
2022-10-17T14:35:55.298Z,8.48
2022-10-17T14:38:22.472Z,7.38
2022-10-17T14:41:37.449Z,7.53
2022-10-17T14:44:21.564Z,6.82
2022-10-17T14:46:52.791Z,5.82
2022-10-17T14:49:39.720Z,4.50
2022-10-17T14:52:17.990Z,3.95
2022-10-17T14:54:47.370Z,6.82
2022-10-17T14:57:18.550Z,8.48
2022-10-17T14:59:54.208Z,9.18
2022-10-17T15:02:21.406Z,5.63
2022-10-17T15:04:47.843Z,5.63
2022-10-17T15:07:15.932Z,5.82
2022-10-17T15:09:45.185Z,7.07
2022-10-17T15:12:15.497Z,8.32
2022-10-17T15:14:43.190Z,6.18
2022-10-17T15:17:15.217Z,5.25
2022-10-17T15:19:41.998Z,3.65
2022-10-17T15:22:08.459Z,5.25
2022-10-17T15:24:34.863Z,7.88
2022-10-17T15:27:01.362Z,5.50
2022-10-17T15:29:28.278Z,6.03
2022-10-17T15:31:54.658Z,7.72
2022-10-17T15:34:21.050Z,5.32
2022-10-17T15:36:51.802Z,6.47
2022-10-17T15:39:18.173Z,4.03
2022-10-17T15:41:44.877Z,4.63
2022-10-17T15:44:11.299Z,8.25
2022-10-17T15:46:40.746Z,10.23
2022-10-17T15:49:11.809Z,10.57
2022-10-17T15:54:06.106Z,5.93
2022-10-17T15:56:36.304Z,13.80
2022-10-17T15:59:31.845Z,5.93
2022-10-17T16:01:58.514Z,8.15
2022-10-17T16:04:27.379Z,14.07
2022-10-17T16:06:53.859Z,14.20
2022-10-17T16:09:20.245Z,14.48
2022-10-17T16:11:47.036Z,14.52
2022-10-17T16:14:16.256Z,14.93
2022-10-17T16:16:43.498Z,9.55
2022-10-17T16:19:10.018Z,11.23
2022-10-17T16:21:40.024Z,14.65
2022-10-17T16:24:09.788Z,12.13
2022-10-17T16:26:36.492Z,10.15
2022-10-17T16:29:04.745Z,12.27
2022-10-17T16:31:34.584Z,14.25
2022-10-17T16:34:03.153Z,14.05
2022-10-17T16:36:30.239Z,10.32
2022-10-17T16:38:56.836Z,16.77
2022-10-17T16:41:25.552Z,12.30
2022-10-17T16:43:54.713Z,12.43
2022-10-17T16:46:22.398Z,12.70
2022-10-17T16:48:49.531Z,18.67
2022-10-17T16:51:18.560Z,10.77
2022-10-17T16:53:46.977Z,18.27
2022-10-17T16:56:15.998Z,16.77
2022-10-17T16:58:43.455Z,19.05
2022-10-17T17:01:13.350Z,21.90
2022-10-17T17:03:42.284Z,17.05
2022-10-17T17:06:13.362Z,14.65
2022-10-17T17:11:08.295Z,36.53
2022-10-17T17:13:35.228Z,18.08
2022-10-17T17:16:03.338Z,26.35
2022-10-17T17:18:29.835Z,21.90
2022-10-17T17:21:01.378Z,22.77
2022-10-17T17:23:28.509Z,16.70
2022-10-17T17:25:59.841Z,21.60
2022-10-17T17:28:27.558Z,24.38
2022-10-17T17:30:55.139Z,33.45
2022-10-17T17:33:23.108Z,20.23
2022-10-17T17:36:00.465Z,20.98
2022-10-17T17:38:31.508Z,20.95
2022-10-17T17:43:24.561Z,16.58
2022-10-17T17:45:51.160Z,24.83
2022-10-17T17:48:17.842Z,17.40
2022-10-17T17:50:44.653Z,30.90
2022-10-17T17:53:13.350Z,24.17
2022-10-17T17:55:40.107Z,26.27
2022-10-17T17:58:08.110Z,27.73
2022-10-17T18:00:36.097Z,16.17
2022-10-17T18:03:02.925Z,19.45
2022-10-17T18:05:29.725Z,20.52
2022-10-17T18:07:56.177Z,38.78
2022-10-17T18:10:22.816Z,25.90
2022-10-17T18:12:49.190Z,16.35
2022-10-17T18:15:15.699Z,23.60
2022-10-17T18:17:42.141Z,28.65
2022-10-17T18:20:08.980Z,33.38
2022-10-17T18:22:35.717Z,20.88
2022-10-17T18:25:02.323Z,24.23
2022-10-17T18:27:28.710Z,23.02
2022-10-17T18:29:55.052Z,20.42
2022-10-17T18:32:21.576Z,18.20
2022-10-17T18:34:48.053Z,27.00
2022-10-17T18:37:14.487Z,21.92
2022-10-17T18:39:40.846Z,21.58
2022-10-17T18:42:07.328Z,13.98
2022-10-17T18:44:33.774Z,26.80
2022-10-17T18:47:03.829Z,24.52
2022-10-17T18:49:31.103Z,26.50
2022-10-17T18:51:57.549Z,25.55
2022-10-17T18:54:24.342Z,19.17
2022-10-17T18:56:52.522Z,23.25
2022-10-17T18:59:19.767Z,24.83
2022-10-17T19:01:46.691Z,20.55
2022-10-17T19:04:13.704Z,28.65
2022-10-17T19:06:40.847Z,23.27
2022-10-17T19:09:09.097Z,20.52
2022-10-17T19:11:37.121Z,22.58
2022-10-17T19:14:07.941Z,26.88
2022-10-17T19:16:36.737Z,23.88
2022-10-17T19:19:15.117Z,23.02
2022-10-17T19:21:42.414Z,17.35
2022-10-17T19:24:13.524Z,18.58
2022-10-17T19:29:07.403Z,18.38
2022-10-17T19:31:35.019Z,19.80
2022-10-17T19:34:01.902Z,26.35
2022-10-17T19:36:33.554Z,26.70
2022-10-17T19:39:02.975Z,21.45
2022-10-17T19:41:29.498Z,21.65
2022-10-17T19:43:56.000Z,26.00
2022-10-17T19:46:24.632Z,14.05
2022-10-17T19:48:52.007Z,19.98
2022-10-17T19:51:20.384Z,26.63
2022-10-17T19:53:47.629Z,13.75
2022-10-17T19:56:14.300Z,23.05
2022-10-17T19:58:46.551Z,26.08
2022-10-17T20:01:16.719Z,20.90
2022-10-17T20:03:43.386Z,19.60
2022-10-17T20:06:10.214Z,22.08
2022-10-17T20:08:38.589Z,16.35
2022-10-17T20:11:07.006Z,17.80
2022-10-17T20:13:35.981Z,20.48
2022-10-17T20:16:03.813Z,18.77
2022-10-17T20:18:30.420Z,10.18
2022-10-17T20:21:05.177Z,22.95
2022-10-17T20:23:32.259Z,15.68
2022-10-17T20:26:13.214Z,24.20
2022-10-17T20:28:47.518Z,22.23
2022-10-17T20:31:14.597Z,23.17
2022-10-17T20:33:41.540Z,26.20
2022-10-17T20:36:11.409Z,25.65
2022-10-17T20:38:38.207Z,13.98
2022-10-17T20:41:07.536Z,27.40
2022-10-17T20:43:35.244Z,25.80
2022-10-17T20:46:09.754Z,25.38
2022-10-17T20:48:52.902Z,43.38
2022-10-17T20:51:20.297Z,30.75
2022-10-17T20:53:47.643Z,27.42
2022-10-17T20:56:25.707Z,25.73
2022-10-17T20:59:04.407Z,25.52
2022-10-17T21:01:32.690Z,28.83
2022-10-17T21:04:10.524Z,19.92
2022-10-17T21:06:37.624Z,24.25
2022-10-17T21:09:05.683Z,27.17
2022-10-17T21:11:32.919Z,20.05
2022-10-17T21:14:04.533Z,21.67
2022-10-17T21:16:33.163Z,36.30
2022-10-17T21:18:59.631Z,24.48
2022-10-17T21:21:28.702Z,21.55
2022-10-17T21:24:00.752Z,16.73
2022-10-17T21:26:28.081Z,27.45
2022-10-17T21:28:55.016Z,24.38
2022-10-17T21:31:24.506Z,31.98
2022-10-17T21:33:54.010Z,25.15
2022-10-17T21:36:21.598Z,27.73
2022-10-17T21:38:49.755Z,30.17
2022-10-17T21:41:19.452Z,26.08
2022-10-17T21:43:46.573Z,39.67
2022-10-17T21:46:15.658Z,32.88
2022-10-17T21:48:42.517Z,22.80
2022-10-17T21:51:11.598Z,25.65
2022-10-17T21:53:38.350Z,27.27
2022-10-17T21:56:08.093Z,29.02
2022-10-17T21:58:34.575Z,23.17
2022-10-17T22:01:11.248Z,17.90
2022-10-17T22:03:42.726Z,19.08
2022-10-17T22:09:01.881Z,20.15
2022-10-17T22:11:30.849Z,35.40
2022-10-17T22:14:00.484Z,18.75
2022-10-17T22:16:28.077Z,21.30
2022-10-17T22:19:05.081Z,27.92
2022-10-17T22:21:34.040Z,18.27
2022-10-17T22:24:02.661Z,17.90
2022-10-17T22:26:31.093Z,24.88
2022-10-17T22:28:58.007Z,21.45
2022-10-17T22:31:24.490Z,19.83
2022-10-17T22:33:51.288Z,31.05
2022-10-17T22:36:17.964Z,29.67
2022-10-17T22:38:44.503Z,23.05
2022-10-17T22:41:10.942Z,16.42
2022-10-17T22:43:37.608Z,14.98
2022-10-17T22:46:05.826Z,17.98
2022-10-17T22:48:32.505Z,21.88
2022-10-17T22:50:59.891Z,18.83
2022-10-17T22:53:27.018Z,20.05
2022-10-17T22:55:58.393Z,15.95
2022-10-17T22:58:25.530Z,25.90
2022-10-17T23:00:52.513Z,18.63
2022-10-17T23:03:20.570Z,20.73
2022-10-17T23:05:47.235Z,26.13
2022-10-17T23:08:14.468Z,18.55
2022-10-17T23:10:41.554Z,21.33
2022-10-17T23:13:07.921Z,25.40
2022-10-17T23:15:35.045Z,23.13
2022-10-17T23:18:02.015Z,17.05
2022-10-17T23:20:29.559Z,21.52
2022-10-17T23:22:56.798Z,20.73
2022-10-17T23:25:23.413Z,17.02
2022-10-17T23:27:49.792Z,15.88
2022-10-17T23:30:16.737Z,24.05
2022-10-17T23:32:43.237Z,16.60
2022-10-17T23:35:09.959Z,20.90
2022-10-17T23:37:37.189Z,16.35
2022-10-17T23:40:05.421Z,19.27
2022-10-17T23:42:32.173Z,15.27
2022-10-17T23:44:58.699Z,23.98
2022-10-17T23:47:25.126Z,22.92
2022-10-17T23:49:51.517Z,17.45
2022-10-17T23:52:17.909Z,13.68
2022-10-17T23:54:44.278Z,18.77
2022-10-17T23:57:10.684Z,20.00
2022-10-17T23:59:37.067Z,17.02
